Time;durP1;ratioP1;P1;durP2;ratioP2;P2;SDS_P1;SDS_P2;PMS_P1;PMS_P2;Temp;Humidity;BMP_temperature;BMP_pressure;BME280_temperature;BME280_humidity;BME280_pressure;Samples;Min_cycle;Max_cycle;Signal;HPM_P1;HPM_P2
2022/03/03 00:02:07;;;;;;;5.30;3.43;;;0.90;99.90;;;;;;5056989;28;20404;-68
2022/03/03 00:04:33;;;;;;;7.63;6.70;;;0.90;99.90;;;;;;5056418;28;20205;-67
2022/03/03 00:06:58;;;;;;;7.13;6.27;;;0.90;99.90;;;;;;5056925;28;20169;-66
2022/03/03 00:09:24;;;;;;;5.83;5.13;;;0.80;99.90;;;;;;5056987;28;20407;-67
2022/03/03 00:11:50;;;;;;;6.13;5.37;;;0.80;99.90;;;;;;5056639;28;20197;-67
2022/03/03 00:14:15;;;;;;;13.43;4.77;;;0.80;99.90;;;;;;5056600;28;20281;-67
2022/03/03 00:16:41;;;;;;;8.07;5.30;;;0.80;99.90;;;;;;5038789;28;20181;-67
2022/03/03 00:19:07;;;;;;;7.17;4.27;;;0.80;99.90;;;;;;5038697;28;20219;-67
2022/03/03 00:21:32;;;;;;;5.77;5.13;;;0.70;99.90;;;;;;5056660;28;20455;-67
2022/03/03 00:23:59;;;;;;;15.47;4.93;;;0.70;99.90;;;;;;5056272;28;20505;-67
2022/03/03 00:26:25;;;;;;;5.43;4.30;;;0.70;99.90;;;;;;5056635;28;20231;-67
2022/03/03 00:28:51;;;;;;;4.90;4.40;;;0.70;99.90;;;;;;5056395;28;20162;-67
2022/03/03 00:31:17;;;;;;;7.65;5.20;;;0.70;99.90;;;;;;5056455;28;20180;-68
2022/03/03 00:33:43;;;;;;;5.00;3.37;;;0.60;99.90;;;;;;5038226;28;20661;-68
2022/03/03 00:36:10;;;;;;;9.10;5.80;;;0.60;99.90;;;;;;5038406;28;20246;-66
2022/03/03 00:38:36;;;;;;;6.57;4.25;;;0.50;99.90;;;;;;5038460;28;20404;-66
2022/03/03 00:41:02;;;;;;;10.05;6.28;;;0.40;99.90;;;;;;5056307;28;20235;-68
2022/03/03 00:43:28;;;;;;;11.02;5.05;;;0.30;99.90;;;;;;5055866;28;20176;-68
2022/03/03 00:45:54;;;;;;;13.20;6.20;;;0.30;99.90;;;;;;5056146;28;20192;-68
2022/03/03 00:48:19;;;;;;;11.30;7.33;;;0.30;99.90;;;;;;5038259;28;20177;-67
2022/03/03 00:50:46;;;;;;;14.70;6.13;;;0.30;99.90;;;;;;5038263;28;20236;-69
2022/03/03 00:53:11;;;;;;;6.05;4.63;;;0.20;99.90;;;;;;5055899;28;20408;-66
2022/03/03 00:55:37;;;;;;;3.47;3.17;;;0.10;99.90;;;;;;5036517;28;20560;-68
2022/03/03 00:58:03;;;;;;;7.50;6.73;;;0.10;99.90;;;;;;5056197;28;20411;-69
2022/03/03 01:00:29;;;;;;;6.60;5.97;;;0.20;99.90;;;;;;5055950;28;20197;-67
2022/03/03 01:02:55;;;;;;;4.95;4.47;;;0.10;99.90;;;;;;5056074;28;20166;-67
2022/03/03 01:05:20;;;;;;;5.33;4.67;;;0.10;99.90;;;;;;5037759;28;20215;-68
2022/03/03 01:07:46;;;;;;;4.27;3.80;;;0.10;99.90;;;;;;5055924;28;20168;-68
2022/03/03 01:10:12;;;;;;;7.27;4.03;;;0.00;99.90;;;;;;5055575;28;20174;-68
2022/03/03 01:12:38;;;;;;;8.43;4.40;;;0.00;99.90;;;;;;5037821;28;20184;-67
2022/03/03 01:15:06;;;;;;;7.38;5.88;;;0.00;99.90;;;;;;5055353;28;20190;-68
2022/03/03 01:17:33;;;;;;;4.22;3.85;;;-0.10;99.90;;;;;;5037742;28;20698;-67
2022/03/03 01:19:58;;;;;;;11.48;4.90;;;-0.10;99.90;;;;;;5055636;28;20264;-68
2022/03/03 01:22:25;;;;;;;4.60;4.20;;;-0.10;99.90;;;;;;5055472;28;20356;-68
2022/03/03 01:24:51;;;;;;;7.75;4.47;;;-0.10;99.90;;;;;;5054951;28;20189;-67
2022/03/03 01:27:16;;;;;;;5.60;5.10;;;-0.10;99.90;;;;;;5055354;28;20218;-67
2022/03/03 01:29:42;;;;;;;6.00;5.50;;;-0.10;99.90;;;;;;5037483;28;20493;-68
2022/03/03 01:32:08;;;;;;;5.90;5.40;;;-0.10;99.90;;;;;;5055246;28;20568;-67
2022/03/03 01:34:35;;;;;;;5.43;5.03;;;-0.20;99.90;;;;;;5054850;28;20198;-68
2022/03/03 01:37:01;;;;;;;4.55;4.25;;;-0.20;99.90;;;;;;5037512;28;20204;-67
2022/03/03 01:39:27;;;;;;;7.10;5.37;;;-0.20;99.90;;;;;;5055195;28;20701;-68
2022/03/03 01:41:52;;;;;;;8.13;7.43;;;-0.20;99.90;;;;;;5055005;28;20771;-67
2022/03/03 01:44:18;;;;;;;4.80;4.00;;;-0.20;99.90;;;;;;5054685;28;20268;-67
2022/03/03 01:46:56;;;;;;;8.10;6.47;;;-0.20;99.90;;;;;;5037181;28;20267;-69
2022/03/03 01:49:22;;;;;;;4.32;3.95;;;-0.30;99.90;;;;;;5055141;28;20165;-68
2022/03/03 01:51:48;;;;;;;6.85;4.82;;;-0.40;99.90;;;;;;5054921;28;20173;-68
2022/03/03 01:54:14;;;;;;;7.63;5.03;;;-0.40;99.90;;;;;;5054690;28;20251;-69
2022/03/03 01:56:41;;;;;;;6.93;6.03;;;-0.40;99.90;;;;;;5055121;28;20253;-70
2022/03/03 01:59:07;;;;;;;11.55;6.93;;;-0.40;99.90;;;;;;5054856;28;20524;-68
2022/03/03 02:01:35;;;;;;;5.25;4.82;;;-0.40;99.90;;;;;;5054633;28;20283;-68
2022/03/03 02:04:05;;;;;;;6.18;4.57;;;-0.40;99.90;;;;;;5054313;28;20615;-67
2022/03/03 02:06:30;;;;;;;7.57;5.13;;;-0.40;99.90;;;;;;5054282;28;20163;-66
2022/03/03 02:08:56;;;;;;;5.87;4.43;;;-0.40;99.90;;;;;;5054573;28;20308;-67
2022/03/03 02:11:22;;;;;;;8.80;6.17;;;-0.40;99.90;;;;;;5055351;28;20173;-67
2022/03/03 02:13:48;;;;;;;7.80;7.03;;;-0.40;99.90;;;;;;5054314;28;20183;-69
2022/03/03 02:16:13;;;;;;;5.33;4.87;;;-0.40;99.90;;;;;;5054495;28;20185;-69
2022/03/03 02:18:41;;;;;;;9.10;4.23;;;-0.50;99.90;;;;;;5054321;28;20169;-68
2022/03/03 02:21:10;;;;;;;5.13;4.63;;;-0.40;99.90;;;;;;5054348;28;20193;-67
2022/03/03 02:23:36;;;;;;;5.47;4.28;;;-0.50;99.90;;;;;;5054166;28;20227;-68
2022/03/03 02:26:02;;;;;;;6.93;4.00;;;-0.50;99.90;;;;;;5054140;28;20197;-67
2022/03/03 02:28:28;;;;;;;5.53;4.53;;;-0.60;99.90;;;;;;5054204;28;20177;-67
2022/03/03 02:30:53;;;;;;;6.43;4.03;;;-0.60;99.90;;;;;;5054232;28;20248;-66
2022/03/03 02:33:19;;;;;;;8.73;5.90;;;-0.60;99.90;;;;;;5053961;28;20231;-67
2022/03/03 02:35:44;;;;;;;5.50;4.50;;;-0.70;99.90;;;;;;5053849;28;20555;-66
2022/03/03 02:38:10;;;;;;;4.33;3.97;;;-0.70;99.90;;;;;;5054170;28;20677;-66
2022/03/03 02:40:36;;;;;;;5.10;4.30;;;-0.70;99.90;;;;;;5054101;28;20196;-67
2022/03/03 02:43:01;;;;;;;5.77;5.33;;;-0.70;99.90;;;;;;5053848;28;20684;-67
2022/03/03 02:45:27;;;;;;;11.70;4.63;;;-0.70;99.90;;;;;;5053513;28;20187;-67
2022/03/03 02:47:52;;;;;;;4.73;4.13;;;-0.70;99.90;;;;;;5053890;28;20515;-67
2022/03/03 02:50:24;;;;;;;4.93;4.20;;;-0.70;99.90;;;;;;5053886;28;20170;-68
2022/03/03 02:52:50;;;;;;;4.80;3.65;;;-0.70;99.90;;;;;;5053856;28;20469;-68
2022/03/03 02:55:16;;;;;;;6.83;4.50;;;-0.70;99.90;;;;;;5053459;28;20186;-67
2022/03/03 02:57:54;;;;;;;6.05;5.45;;;-0.80;99.90;;;;;;5053734;28;20407;-67
2022/03/03 03:00:22;;;;;;;14.40;6.95;;;-0.80;99.90;;;;;;5053724;28;20185;-67
2022/03/03 03:02:48;;;;;;;11.00;5.97;;;-0.80;99.90;;;;;;5053458;28;20165;-68
2022/03/03 03:05:13;;;;;;;4.07;3.40;;;-0.80;99.90;;;;;;5053105;28;20748;-67
2022/03/03 03:07:39;;;;;;;4.37;3.47;;;-0.90;99.90;;;;;;5053480;28;20178;-67
2022/03/03 03:10:06;;;;;;;12.47;5.13;;;-0.90;99.90;;;;;;5053707;28;20215;-67
2022/03/03 03:12:32;;;;;;;7.30;4.72;;;-1.00;99.90;;;;;;5053423;28;20190;-68
2022/03/03 03:14:58;;;;;;;5.28;4.75;;;-1.00;99.90;;;;;;5053018;28;20201;-67
2022/03/03 03:17:23;;;;;;;3.67;3.47;;;-1.00;99.90;;;;;;5034934;28;20178;-67
2022/03/03 03:19:49;;;;;;;12.53;6.33;;;-1.00;99.90;;;;;;5053309;28;20209;-69
2022/03/03 03:22:15;;;;;;;2.90;2.73;;;-0.90;99.90;;;;;;5035507;28;20178;-66
2022/03/03 03:24:40;;;;;;;5.23;3.83;;;-0.90;99.90;;;;;;5052929;28;20667;-67
2022/03/03 03:27:06;;;;;;;3.83;3.60;;;-0.90;99.90;;;;;;5053382;28;20192;-67
2022/03/03 03:29:32;;;;;;;4.37;3.97;;;-0.90;99.90;;;;;;5053328;28;20532;-67
2022/03/03 03:31:58;;;;;;;5.97;4.57;;;-0.80;99.90;;;;;;5053106;28;20417;-67
2022/03/03 03:34:23;;;;;;;4.65;4.30;;;-0.90;99.90;;;;;;5052932;28;20655;-67
2022/03/03 03:36:49;;;;;;;7.20;4.57;;;-0.90;99.90;;;;;;5053157;28;20176;-67
2022/03/03 03:39:15;;;;;;;6.27;4.90;;;-0.90;99.90;;;;;;5053220;28;20299;-67
2022/03/03 03:41:43;;;;;;;3.90;3.50;;;-0.90;99.90;;;;;;5035154;28;20202;-68
2022/03/03 03:44:09;;;;;;;6.60;5.35;;;-0.90;99.90;;;;;;5052808;28;20192;-66
2022/03/03 03:46:35;;;;;;;6.47;5.22;;;-1.00;99.90;;;;;;5053227;28;20171;-67
2022/03/03 03:49:01;;;;;;;5.00;4.50;;;-1.00;99.90;;;;;;5053109;28;20170;-67
2022/03/03 03:51:27;;;;;;;12.00;5.80;;;-1.00;99.90;;;;;;5053308;28;20755;-67
2022/03/03 03:53:52;;;;;;;11.13;3.73;;;-1.00;99.90;;;;;;5052736;28;20408;-67
2022/03/03 03:56:18;;;;;;;3.50;3.17;;;-1.10;99.90;;;;;;5053091;28;20202;-67
2022/03/03 03:58:44;;;;;;;4.67;4.37;;;-1.10;99.90;;;;;;5052839;28;20247;-66
2022/03/03 04:01:09;;;;;;;10.00;6.70;;;-1.10;99.90;;;;;;5034857;28;20199;-67
2022/03/03 04:03:35;;;;;;;4.80;3.30;;;-1.10;99.90;;;;;;5034626;28;20196;-66
2022/03/03 04:06:01;;;;;;;3.83;3.53;;;-1.10;99.90;;;;;;5052891;28;20551;-67
2022/03/03 04:08:26;;;;;;;3.43;2.70;;;-1.10;99.90;;;;;;5034981;28;20169;-67
2022/03/03 04:10:52;;;;;;;5.17;3.30;;;-1.10;99.90;;;;;;5034992;28;20633;-67
2022/03/03 04:13:21;;;;;;;6.70;5.65;;;-1.20;99.90;;;;;;5052414;28;20205;-67
2022/03/03 04:15:46;;;;;;;3.80;3.40;;;-1.10;99.90;;;;;;5034725;28;20280;-67
2022/03/03 04:18:12;;;;;;;5.00;4.60;;;-1.10;99.90;;;;;;5052780;28;20197;-68
2022/03/03 04:20:38;;;;;;;10.10;6.80;;;-1.20;99.90;;;;;;5052771;28;20607;-68
2022/03/03 04:23:04;;;;;;;10.27;5.90;;;-1.20;99.90;;;;;;5052240;28;20223;-73
2022/03/03 04:25:29;;;;;;;6.57;4.40;;;-1.20;99.90;;;;;;5052877;28;20268;-67
2022/03/03 04:27:55;;;;;;;5.40;5.00;;;-1.20;99.90;;;;;;5052844;28;20960;-67
2022/03/03 04:30:21;;;;;;;8.13;6.40;;;-1.20;99.90;;;;;;5056211;28;20170;-67
2022/03/03 04:32:46;;;;;;;5.90;5.40;;;-1.30;99.90;;;;;;5056419;28;20189;-68
2022/03/03 04:35:12;;;;;;;5.77;5.20;;;-1.30;99.90;;;;;;5056056;28;20189;-68
2022/03/03 04:37:39;;;;;;;7.33;5.87;;;-1.30;99.90;;;;;;5056385;28;20177;-68
2022/03/03 04:40:05;;;;;;;8.38;3.33;;;-1.40;99.90;;;;;;5056304;28;20404;-68
2022/03/03 04:42:31;;;;;;;5.18;3.63;;;-1.30;99.90;;;;;;5038356;28;20257;-68
2022/03/03 04:44:57;;;;;;;3.00;2.00;;;-1.40;99.90;;;;;;5055758;28;20687;-67
2022/03/03 04:47:22;;;;;;;6.73;4.37;;;-1.40;99.90;;;;;;5056576;28;20242;-67
2022/03/03 04:49:48;;;;;;;6.47;4.00;;;-1.40;99.90;;;;;;5055955;28;20167;-67
2022/03/03 04:52:13;;;;;;;3.57;3.23;;;-1.40;99.90;;;;;;5055997;28;20209;-67
2022/03/03 04:54:39;;;;;;;11.33;5.00;;;-1.40;99.90;;;;;;5037597;28;20195;-68
2022/03/03 04:57:05;;;;;;;2.57;2.47;;;-1.40;99.90;;;;;;5056078;28;20625;-68
2022/03/03 04:59:31;;;;;;;5.88;4.45;;;-1.40;99.90;;;;;;5055922;28;20178;-68
2022/03/03 05:01:57;;;;;;;5.60;5.10;;;-1.40;99.90;;;;;;5055735;28;20189;-68
2022/03/03 05:04:22;;;;;;;3.97;3.60;;;-1.40;99.90;;;;;;5055267;28;20205;-67
2022/03/03 05:06:49;;;;;;;6.00;4.20;;;-1.50;99.90;;;;;;5055854;28;20223;-67
2022/03/03 05:09:15;;;;;;;8.80;5.13;;;-1.50;99.90;;;;;;5037895;28;20166;-67
2022/03/03 05:11:42;;;;;;;7.68;5.85;;;-1.50;99.90;;;;;;5055451;28;20198;-67
2022/03/03 05:14:08;;;;;;;10.90;5.90;;;-1.50;99.90;;;;;;5055175;28;20172;-66
2022/03/03 05:16:33;;;;;;;7.10;6.40;;;-1.60;99.90;;;;;;5055447;28;20173;-66
2022/03/03 05:18:59;;;;;;;4.33;3.90;;;-1.60;99.90;;;;;;5055357;28;20176;-67
2022/03/03 05:21:25;;;;;;;4.63;4.20;;;-1.70;99.90;;;;;;5055645;28;20193;-67
2022/03/03 05:23:51;;;;;;;10.47;5.63;;;-1.70;99.90;;;;;;5055070;28;20893;-66
2022/03/03 05:26:18;;;;;;;5.90;4.83;;;-1.70;99.90;;;;;;5055370;28;20414;-67
2022/03/03 05:28:44;;;;;;;5.28;3.35;;;-1.70;99.90;;;;;;5055225;28;20253;-67
2022/03/03 05:31:10;;;;;;;10.98;4.20;;;-1.70;99.90;;;;;;5037380;28;20180;-67
2022/03/03 05:33:35;;;;;;;5.30;4.00;;;-1.80;99.90;;;;;;5055018;28;20572;-66
2022/03/03 05:36:07;;;;;;;7.90;5.60;;;-1.80;99.90;;;;;;5055196;28;20193;-66
2022/03/03 05:38:34;;;;;;;5.95;4.93;;;-1.90;99.90;;;;;;5037345;28;20633;-67
2022/03/03 05:41:00;;;;;;;4.15;3.90;;;-1.90;99.90;;;;;;5054242;28;20259;-68
2022/03/03 05:43:27;;;;;;;5.30;4.80;;;-1.80;99.90;;;;;;5055284;28;20177;-67
2022/03/03 05:45:54;;;;;;;5.15;4.75;;;-1.80;99.90;;;;;;5054985;28;20797;-67
2022/03/03 05:48:20;;;;;;;6.35;4.85;;;-1.70;99.90;;;;;;5054801;28;20528;-68
2022/03/03 05:50:47;;;;;;;7.75;4.45;;;-1.70;99.90;;;;;;5036824;28;20177;-68
2022/03/03 05:53:13;;;;;;;4.82;3.95;;;-1.70;99.90;;;;;;5054608;28;20636;-67
2022/03/03 05:55:47;;;;;;;5.78;5.40;;;-1.70;99.90;;;;;;5054740;28;20258;-68
2022/03/03 05:58:20;;;;;;;3.95;3.00;;;-1.70;99.90;;;;;;5036902;28;20173;-67
2022/03/03 06:00:48;;;;;;;6.10;5.53;;;-1.70;99.90;;;;;;5037331;28;20569;-67
2022/03/03 06:03:19;;;;;;;5.75;5.05;;;-1.60;99.90;;;;;;5054451;28;20260;-67
2022/03/03 06:05:49;;;;;;;5.18;4.53;;;-1.60;99.90;;;;;;5054635;28;20193;-67
2022/03/03 06:08:30;;;;;;;5.22;4.85;;;-1.60;99.90;;;;;;5054528;28;20182;-67
2022/03/03 06:11:01;;;;;;;5.18;4.35;;;-1.60;99.90;;;;;;5054573;28;20174;-67
2022/03/03 06:13:34;;;;;;;15.02;4.70;;;-1.60;99.90;;;;;;5054301;28;20169;-67
2022/03/03 06:16:02;;;;;;;7.20;5.53;;;-1.60;99.90;;;;;;5054334;28;20223;-67
2022/03/03 06:18:33;;;;;;;8.95;4.25;;;-1.60;99.90;;;;;;5054385;28;20500;-67
2022/03/03 06:20:59;;;;;;;7.38;6.85;;;-1.50;99.90;;;;;;5054425;28;20193;-67
2022/03/03 06:23:26;;;;;;;4.95;4.65;;;-1.50;99.90;;;;;;5053819;28;20166;-67
2022/03/03 06:26:02;;;;;;;29.52;6.50;;;-1.40;99.90;;;;;;5054217;28;20190;-66
2022/03/03 06:28:28;;;;;;;7.28;5.63;;;-1.30;99.90;;;;;;5054296;28;20606;-66
2022/03/03 06:30:54;;;;;;;7.35;6.53;;;-1.10;99.90;;;;;;5054139;28;20552;-67
2022/03/03 06:33:20;;;;;;;6.43;5.40;;;-0.90;99.90;;;;;;5053631;28;20178;-67
2022/03/03 06:35:45;;;;;;;20.10;7.30;;;-0.70;99.90;;;;;;5036000;28;20201;-67
2022/03/03 06:38:11;;;;;;;8.77;6.53;;;-0.50;99.90;;;;;;5053815;28;20181;-67
2022/03/03 06:40:36;;;;;;;7.63;6.93;;;-0.30;99.90;;;;;;5053958;28;20190;-67
2022/03/03 06:43:02;;;;;;;8.53;6.53;;;-0.10;99.90;;;;;;5053544;28;20177;-67
2022/03/03 06:45:30;;;;;;;8.23;5.85;;;0.20;99.90;;;;;;5035672;28;20199;-67
2022/03/03 06:47:58;;;;;;;6.00;5.47;;;0.40;99.90;;;;;;5054247;28;20165;-67
2022/03/03 06:50:24;;;;;;;5.82;5.20;;;0.70;99.90;;;;;;5053514;28;20169;-67
2022/03/03 06:52:51;;;;;;;6.30;5.70;;;1.00;99.90;;;;;;5053567;28;20223;-67
2022/03/03 06:55:26;;;;;;;12.00;7.95;;;1.30;99.90;;;;;;5053266;28;20435;-67
2022/03/03 06:57:56;;;;;;;9.27;8.10;;;1.80;99.90;;;;;;5054030;28;20653;-67
2022/03/03 07:00:33;;;;;;;10.80;7.15;;;2.40;99.90;;;;;;5035763;28;20197;-67
2022/03/03 07:03:00;;;;;;;14.40;9.60;;;2.80;99.90;;;;;;5053663;28;20165;-67
2022/03/03 07:05:28;;;;;;;7.65;6.90;;;3.20;99.90;;;;;;5053178;28;20243;-67
2022/03/03 07:07:54;;;;;;;14.18;7.47;;;3.60;99.90;;;;;;5053602;28;20193;-68
2022/03/03 07:10:25;;;;;;;12.20;7.60;;;3.90;99.70;;;;;;5053568;28;20173;-68
2022/03/03 07:12:55;;;;;;;9.25;6.82;;;3.90;99.00;;;;;;5053716;28;20524;-68
2022/03/03 07:15:23;;;;;;;11.43;10.05;;;4.10;99.20;;;;;;5053136;28;20647;-68
2022/03/03 07:17:55;;;;;;;9.82;7.38;;;4.50;98.60;;;;;;5053310;28;20560;-66
2022/03/03 07:20:26;;;;;;;12.13;10.35;;;4.90;97.60;;;;;;5053324;28;20201;-68
2022/03/03 07:23:02;;;;;;;9.55;8.50;;;5.50;97.20;;;;;;5053465;28;20651;-68
2022/03/03 07:25:37;;;;;;;9.40;7.30;;;6.00;95.30;;;;;;5053007;28;20184;-68
2022/03/03 07:28:06;;;;;;;9.95;7.55;;;6.50;95.00;;;;;;5053278;28;20168;-68
2022/03/03 07:30:35;;;;;;;11.90;8.52;;;7.10;93.80;;;;;;5053223;28;20697;-67
2022/03/03 07:33:06;;;;;;;9.05;7.35;;;7.60;92.30;;;;;;5053041;28;20588;-66
2022/03/03 07:35:34;;;;;;;7.40;6.70;;;8.00;92.20;;;;;;5052979;28;20193;-67
2022/03/03 07:38:04;;;;;;;7.43;6.70;;;8.50;92.00;;;;;;5053165;28;20458;-68
2022/03/03 07:40:32;;;;;;;15.53;10.17;;;9.10;90.60;;;;;;5035281;28;20447;-69
2022/03/03 07:42:59;;;;;;;10.10;9.10;;;9.70;89.10;;;;;;5053015;28;20414;-67
2022/03/03 07:45:25;;;;;;;10.23;8.70;;;10.30;84.40;;;;;;5052855;28;20391;-67
2022/03/03 07:47:54;;;;;;;11.07;8.83;;;10.80;81.80;;;;;;5053075;28;20428;-67
2022/03/03 07:50:20;;;;;;;11.50;7.77;;;11.30;80.40;;;;;;5053045;28;20443;-67
2022/03/03 07:52:48;;;;;;;10.03;9.00;;;11.80;77.60;;;;;;5052771;28;20435;-67
2022/03/03 07:55:13;;;;;;;7.80;7.03;;;12.20;74.00;;;;;;5052656;28;20432;-69
2022/03/03 07:57:44;;;;;;;10.23;8.80;;;12.50;75.20;;;;;;5053022;28;20405;-69
2022/03/03 08:00:13;;;;;;;13.50;7.90;;;12.90;73.60;;;;;;5034921;28;20176;-69
2022/03/03 08:02:43;;;;;;;12.53;8.40;;;13.10;73.10;;;;;;5052815;28;20458;-69
2022/03/03 08:05:10;;;;;;;9.60;8.70;;;13.60;72.70;;;;;;5055781;28;20801;-68
2022/03/03 08:07:44;;;;;;;10.23;9.20;;;14.20;69.60;;;;;;5056864;28;20954;-69
2022/03/03 08:10:11;;;;;;;9.93;8.00;;;14.60;68.40;;;;;;5056816;28;20750;-68
2022/03/03 08:12:39;;;;;;;8.87;7.97;;;15.00;68.00;;;;;;5038987;28;20444;-69
2022/03/03 08:15:06;;;;;;;12.43;10.50;;;15.00;64.90;;;;;;5056186;28;20482;-69
2022/03/03 08:17:36;;;;;;;12.47;9.83;;;14.90;65.60;;;;;;5038565;28;20414;-68
2022/03/03 08:20:07;;;;;;;10.73;9.63;;;14.80;66.90;;;;;;5038629;28;20404;-69
2022/03/03 08:22:33;;;;;;;16.43;10.50;;;14.80;64.30;;;;;;5038782;28;20412;-68
2022/03/03 08:25:04;;;;;;;13.20;9.67;;;14.70;64.60;;;;;;5056069;28;20422;-69
2022/03/03 08:27:29;;;;;;;13.73;9.67;;;14.90;64.80;;;;;;5038847;28;20401;-69
2022/03/03 08:29:56;;;;;;;10.73;9.63;;;14.80;63.10;;;;;;5056392;28;20418;-68
2022/03/03 08:32:23;;;;;;;10.77;9.33;;;14.80;62.50;;;;;;5056733;28;20168;-68
2022/03/03 08:35:10;;;;;;;9.90;8.90;;;14.70;62.50;;;;;;5056083;28;20396;-69
2022/03/03 08:37:51;;;;;;;10.50;9.17;;;14.50;63.10;;;;;;5056277;28;20400;-68
2022/03/03 08:40:17;;;;;;;12.00;9.57;;;15.00;62.70;;;;;;5038474;28;20461;-70
2022/03/03 08:42:56;;;;;;;10.83;9.60;;;15.20;60.90;;;;;;5056140;28;20383;-69
2022/03/03 08:45:23;;;;;;;13.00;9.77;;;15.00;61.40;;;;;;5055971;28;20758;-68
2022/03/03 08:47:58;;;;;;;11.77;10.57;;;15.30;60.80;;;;;;5056193;28;20393;-68
2022/03/03 08:50:27;;;;;;;11.23;10.10;;;15.70;60.30;;;;;;5038671;28;20457;-68
2022/03/03 08:52:57;;;;;;;11.00;9.90;;;16.20;59.50;;;;;;5055882;28;20450;-69
2022/03/03 08:55:24;;;;;;;12.87;9.53;;;16.60;59.00;;;;;;5055892;28;20470;-70
2022/03/03 08:57:50;;;;;;;9.93;8.90;;;17.00;58.40;;;;;;5055901;28;20392;-69
2022/03/03 09:00:16;;;;;;;10.97;9.90;;;17.50;57.60;;;;;;5055975;28;20937;-69
2022/03/03 09:02:43;;;;;;;11.20;10.10;;;17.70;56.50;;;;;;5056079;28;20669;-68
2022/03/03 09:05:09;;;;;;;12.70;10.03;;;17.80;56.30;;;;;;5055315;28;20421;-68
2022/03/03 09:07:35;;;;;;;11.30;10.00;;;17.80;56.60;;;;;;5055767;28;20387;-68
2022/03/03 09:10:02;;;;;;;12.43;10.30;;;17.90;55.30;;;;;;5055819;28;20389;-69
2022/03/03 09:12:27;;;;;;;10.33;9.23;;;17.80;54.70;;;;;;5056001;28;20431;-68
2022/03/03 09:14:53;;;;;;;16.40;10.10;;;17.70;55.40;;;;;;5036424;28;20973;-68
2022/03/03 09:17:19;;;;;;;14.57;11.00;;;18.10;54.50;;;;;;5055312;28;20173;-68
2022/03/03 09:19:45;;;;;;;11.97;9.50;;;18.70;53.90;;;;;;5055528;28;20939;-68
2022/03/03 09:22:11;;;;;;;11.57;9.97;;;18.80;52.90;;;;;;5055401;28;20192;-68
2022/03/03 09:24:37;;;;;;;11.23;10.00;;;18.40;53.10;;;;;;5055055;28;20228;-68
2022/03/03 09:27:04;;;;;;;12.43;11.10;;;18.70;54.60;;;;;;5055476;28;20418;-68
2022/03/03 09:29:33;;;;;;;11.00;9.90;;;19.10;53.50;;;;;;5037476;28;20170;-68
2022/03/03 09:32:03;;;;;;;12.90;10.90;;;19.40;53.30;;;;;;5055412;28;20412;-68
2022/03/03 09:34:28;;;;;;;15.10;13.50;;;19.50;52.10;;;;;;5054896;28;20403;-68
2022/03/03 09:36:55;;;;;;;11.23;10.03;;;19.50;52.10;;;;;;5055103;28;20880;-69
2022/03/03 09:39:21;;;;;;;11.83;10.73;;;19.20;52.00;;;;;;5055232;28;20493;-70
2022/03/03 09:41:47;;;;;;;12.33;10.80;;;19.20;52.40;;;;;;5055212;28;20422;-68
2022/03/03 09:44:13;;;;;;;11.63;10.43;;;19.10;52.20;;;;;;5054804;28;20403;-68
2022/03/03 09:46:40;;;;;;;12.70;11.40;;;18.90;53.00;;;;;;5055267;28;20776;-69
2022/03/03 09:49:06;;;;;;;10.93;9.90;;;19.00;52.80;;;;;;5054735;28;20443;-70
2022/03/03 09:51:32;;;;;;;12.70;10.73;;;19.20;52.60;;;;;;5054784;28;20802;-70
2022/03/03 09:53:58;;;;;;;14.70;13.20;;;19.50;52.70;;;;;;5054470;28;20571;-69
2022/03/03 09:56:24;;;;;;;13.93;12.53;;;19.70;52.70;;;;;;5054876;28;20532;-67
2022/03/03 09:58:49;;;;;;;12.20;10.77;;;19.60;51.90;;;;;;5037028;28;20379;-69
2022/03/03 10:01:17;;;;;;;13.60;11.90;;;19.40;51.60;;;;;;5054848;28;20206;-71
2022/03/03 10:03:47;;;;;;;12.00;10.80;;;18.90;51.40;;;;;;5036446;28;20220;-69
2022/03/03 10:06:13;;;;;;;14.80;11.60;;;18.60;51.80;;;;;;5054617;28;20481;-70
2022/03/03 10:08:39;;;;;;;11.03;10.00;;;18.30;53.00;;;;;;5036906;28;20390;-69
2022/03/03 10:11:06;;;;;;;12.43;11.10;;;18.70;52.20;;;;;;5036768;28;20755;-69
2022/03/03 10:13:52;;;;;;;10.97;9.87;;;19.10;52.20;;;;;;5054174;28;20756;-69
2022/03/03 10:16:23;;;;;;;12.87;10.50;;;19.20;52.20;;;;;;5054472;28;20446;-69
2022/03/03 10:19:04;;;;;;;11.87;10.67;;;19.20;50.90;;;;;;5054338;28;20437;-70
2022/03/03 10:21:32;;;;;;;12.83;10.20;;;19.10;50.70;;;;;;5054608;28;20462;-69
2022/03/03 10:23:59;;;;;;;13.93;10.20;;;18.80;51.10;;;;;;5053769;28;20485;-69
2022/03/03 10:26:38;;;;;;;11.33;9.43;;;18.70;51.00;;;;;;5053810;28;20922;-69
2022/03/03 10:29:19;;;;;;;10.33;9.30;;;19.00;50.20;;;;;;5036334;28;20456;-71
2022/03/03 10:31:46;;;;;;;14.93;10.27;;;19.00;50.90;;;;;;5049541;28;20395;-70
2022/03/03 10:34:38;;;;;;;11.57;10.07;;;18.60;51.00;;;;;;5053817;28;20507;-70
2022/03/03 10:37:05;;;;;;;19.23;10.73;;;18.10;51.30;;;;;;5054418;28;20495;-69
2022/03/03 10:39:46;;;;;;;12.00;10.70;;;18.10;51.30;;;;;;5054001;28;20383;-70
2022/03/03 10:42:16;;;;;;;11.30;8.93;;;18.20;51.40;;;;;;5037141;28;20569;-69
2022/03/03 10:44:42;;;;;;;10.17;9.27;;;18.40;51.40;;;;;;5053585;28;20403;-69
2022/03/03 10:47:14;;;;;;;12.10;10.07;;;18.50;51.70;;;;;;5053786;28;20775;-70
2022/03/03 10:49:45;;;;;;;13.03;10.03;;;18.70;52.10;;;;;;5053976;28;20411;-69
2022/03/03 10:52:25;;;;;;;9.63;8.60;;;18.70;51.30;;;;;;5053628;28;20410;-70
2022/03/03 10:55:03;;;;;;;10.67;9.50;;;18.70;51.80;;;;;;5053088;28;20515;-70
2022/03/03 10:57:56;;;;;;;10.80;9.67;;;18.70;52.40;;;;;;5053557;28;20412;-71
2022/03/03 11:00:27;;;;;;;13.17;10.23;;;18.50;51.60;;;;;;5053651;28;20434;-69
2022/03/03 11:02:59;;;;;;;11.37;10.20;;;18.00;52.20;;;;;;5053849;28;20400;-71
2022/03/03 11:05:27;;;;;;;12.80;9.43;;;17.70;52.60;;;;;;5053093;28;20414;-71
2022/03/03 11:07:56;;;;;;;11.63;9.43;;;17.50;52.80;;;;;;5053648;28;20408;-70
2022/03/03 11:10:25;;;;;;;19.60;9.37;;;17.30;54.10;;;;;;5053345;28;20873;-68
2022/03/03 11:12:51;;;;;;;12.20;8.70;;;17.60;52.80;;;;;;5035369;28;20387;-69
2022/03/03 11:15:20;;;;;;;10.23;8.97;;;17.90;53.10;;;;;;5053161;28;20427;-69
2022/03/03 11:17:47;;;;;;;11.67;9.77;;;18.10;52.70;;;;;;5053457;28;20405;-71
2022/03/03 11:20:15;;;;;;;10.93;9.70;;;18.10;52.70;;;;;;5053586;28;20400;-71
2022/03/03 11:22:42;;;;;;;10.03;9.07;;;18.00;53.40;;;;;;5053316;28;20480;-69
2022/03/03 11:25:12;;;;;;;10.70;9.60;;;17.80;52.30;;;;;;5053263;28;20423;-69
2022/03/03 11:27:40;;;;;;;12.60;10.60;;;17.20;52.50;;;;;;5037085;28;20411;-69
2022/03/03 11:30:24;;;;;;;8.60;7.40;;;16.40;52.80;;;;;;5055664;28;20380;-69
2022/03/03 11:33:21;;;;;;;10.40;8.73;;;15.20;52.90;;;;;;5055241;28;20395;-68
2022/03/03 11:35:50;;;;;;;10.43;8.70;;;14.20;53.70;;;;;;5057090;28;20430;-68
2022/03/03 11:38:22;;;;;;;13.00;8.13;;;13.60;56.10;;;;;;5056164;28;20424;-67
2022/03/03 11:40:54;;;;;;;9.47;8.47;;;13.10;57.40;;;;;;5057008;28;20487;-69
2022/03/03 11:43:20;;;;;;;13.70;8.87;;;12.70;57.10;;;;;;5053435;28;20821;-70
2022/03/03 11:45:51;;;;;;;13.40;8.83;;;12.50;57.80;;;;;;5052962;28;20426;-67
2022/03/03 11:48:22;;;;;;;11.00;8.23;;;12.30;58.80;;;;;;5053079;28;20176;-68
2022/03/03 11:50:49;;;;;;;12.70;8.70;;;12.00;58.80;;;;;;5053422;28;20795;-70
2022/03/03 11:53:18;;;;;;;11.60;9.13;;;11.80;59.20;;;;;;5052806;28;20501;-69
2022/03/03 11:56:03;;;;;;;11.30;8.27;;;11.70;58.70;;;;;;5053150;28;20432;-68
2022/03/03 11:58:38;;;;;;;13.07;7.80;;;11.60;59.40;;;;;;5035637;28;20832;-67
2022/03/03 12:01:14;;;;;;;9.10;7.70;;;11.60;61.20;;;;;;5053398;28;20536;-67
2022/03/03 12:04:00;;;;;;;9.77;8.75;;;11.60;59.60;;;;;;5018546;28;20433;-67
2022/03/03 12:06:43;;;;;;;15.05;9.90;;;11.40;59.40;;;;;;5052952;28;20296;-65
2022/03/03 12:09:26;;;;;;;14.60;9.38;;;11.30;59.60;;;;;;5053349;28;20282;-67
2022/03/03 12:12:12;;;;;;;10.67;8.30;;;11.30;59.30;;;;;;5035133;28;20188;-67
2022/03/03 12:14:48;;;;;;;15.40;9.27;;;11.20;59.80;;;;;;5052412;28;20484;-70
2022/03/03 12:17:46;;;;;;;16.73;10.60;;;11.20;59.70;;;;;;5053209;28;20170;-69
2022/03/03 12:20:23;;;;;;;8.68;7.63;;;11.10;59.60;;;;;;5052638;28;20177;-69
2022/03/03 12:23:02;;;;;;;13.00;8.60;;;11.00;60.00;;;;;;5052751;28;20165;-69
2022/03/03 12:25:54;;;;;;;10.43;8.60;;;11.00;62.60;;;;;;5052370;28;20194;-68
2022/03/03 12:28:40;;;;;;;12.52;7.90;;;10.90;61.50;;;;;;5052824;28;20169;-70
2022/03/03 12:31:25;;;;;;;15.00;9.40;;;10.80;61.50;;;;;;5034770;28;20272;-69
2022/03/03 12:33:59;;;;;;;20.77;8.90;;;10.90;62.80;;;;;;5052728;28;20628;-66
2022/03/03 12:36:25;;;;;;;10.48;7.60;;;10.90;62.20;;;;;;5052860;28;20180;-67
2022/03/03 12:38:55;;;;;;;15.07;9.87;;;11.00;62.60;;;;;;5034782;28;20256;-68
2022/03/03 12:41:25;;;;;;;13.73;9.45;;;11.00;62.50;;;;;;5052692;28;20202;-69
2022/03/03 12:43:50;;;;;;;12.02;8.93;;;11.10;63.30;;;;;;5052256;28;20166;-69
2022/03/03 12:46:17;;;;;;;14.47;10.53;;;11.10;64.40;;;;;;5052511;28;20658;-68
2022/03/03 12:48:45;;;;;;;22.98;9.98;;;11.10;64.90;;;;;;5052489;28;20710;-69
2022/03/03 12:51:11;;;;;;;12.95;10.40;;;11.10;63.70;;;;;;5055491;28;20193;-66